sensor_id;sensor_type;location;lat;lon;timestamp;P1;durP1;ratioP1;P2;durP2;ratioP2
2039;SDS011;1025;42.686;23.350;2022-11-20T00:02:05;2.70;;;2.43;;
2039;SDS011;1025;42.686;23.350;2022-11-20T00:04:32;2.23;;;2.13;;
2039;SDS011;1025;42.686;23.350;2022-11-20T00:07:00;6.83;;;2.40;;
2039;SDS011;1025;42.686;23.350;2022-11-20T00:09:26;2.90;;;2.73;;
2039;SDS011;1025;42.686;23.350;2022-11-20T00:11:53;2.37;;;2.17;;
2039;SDS011;1025;42.686;23.350;2022-11-20T00:14:19;2.07;;;1.97;;
2039;SDS011;1025;42.686;23.350;2022-11-20T00:16:46;3.50;;;2.67;;
2039;SDS011;1025;42.686;23.350;2022-11-20T00:19:12;3.23;;;3.13;;
2039;SDS011;1025;42.686;23.350;2022-11-20T00:21:39;3.70;;;3.37;;
2039;SDS011;1025;42.686;23.350;2022-11-20T00:24:09;2.50;;;2.40;;
2039;SDS011;1025;42.686;23.350;2022-11-20T00:26:35;1.00;;;1.00;;
2039;SDS011;1025;42.686;23.350;2022-11-20T00:29:02;1.47;;;1.37;;
2039;SDS011;1025;42.686;23.350;2022-11-20T00:31:29;8.90;;;1.57;;
2039;SDS011;1025;42.686;23.350;2022-11-20T00:33:55;1.83;;;1.60;;
2039;SDS011;1025;42.686;23.350;2022-11-20T00:36:23;3.30;;;2.63;;
2039;SDS011;1025;42.686;23.350;2022-11-20T00:38:51;2.80;;;2.60;;
2039;SDS011;1025;42.686;23.350;2022-11-20T00:41:19;3.40;;;3.10;;
2039;SDS011;1025;42.686;23.350;2022-11-20T00:43:46;2.43;;;2.33;;
2039;SDS011;1025;42.686;23.350;2022-11-20T00:46:13;2.70;;;2.50;;
2039;SDS011;1025;42.686;23.350;2022-11-20T00:48:40;1.50;;;1.40;;
2039;SDS011;1025;42.686;23.350;2022-11-20T00:51:07;2.17;;;1.97;;
2039;SDS011;1025;42.686;23.350;2022-11-20T00:53:33;1.70;;;1.57;;
2039;SDS011;1025;42.686;23.350;2022-11-20T00:56:01;2.20;;;2.00;;
2039;SDS011;1025;42.686;23.350;2022-11-20T00:58:30;2.30;;;1.83;;
2039;SDS011;1025;42.686;23.350;2022-11-20T01:00:59;1.10;;;1.10;;
2039;SDS011;1025;42.686;23.350;2022-11-20T01:03:26;1.17;;;1.17;;
2039;SDS011;1025;42.686;23.350;2022-11-20T01:05:52;2.30;;;1.30;;
2039;SDS011;1025;42.686;23.350;2022-11-20T01:08:19;0.97;;;0.90;;
2039;SDS011;1025;42.686;23.350;2022-11-20T01:10:45;1.50;;;1.50;;
2039;SDS011;1025;42.686;23.350;2022-11-20T01:13:12;1.73;;;1.50;;
2039;SDS011;1025;42.686;23.350;2022-11-20T01:16:02;1.20;;;1.10;;
2039;SDS011;1025;42.686;23.350;2022-11-20T01:18:29;1.43;;;1.33;;
2039;SDS011;1025;42.686;23.350;2022-11-20T01:20:59;0.90;;;0.90;;
2039;SDS011;1025;42.686;23.350;2022-11-20T01:23:26;1.10;;;1.00;;
2039;SDS011;1025;42.686;23.350;2022-11-20T01:25:52;1.00;;;1.00;;
2039;SDS011;1025;42.686;23.350;2022-11-20T01:28:19;1.00;;;1.00;;
2039;SDS011;1025;42.686;23.350;2022-11-20T01:30:45;0.80;;;0.80;;
2039;SDS011;1025;42.686;23.350;2022-11-20T01:33:13;1.00;;;1.00;;
2039;SDS011;1025;42.686;23.350;2022-11-20T01:35:40;1.00;;;1.00;;
2039;SDS011;1025;42.686;23.350;2022-11-20T01:38:06;0.83;;;0.83;;
2039;SDS011;1025;42.686;23.350;2022-11-20T01:40:33;1.43;;;1.33;;
2039;SDS011;1025;42.686;23.350;2022-11-20T01:43:01;1.10;;;1.10;;
2039;SDS011;1025;42.686;23.350;2022-11-20T01:45:51;1.33;;;1.00;;
2039;SDS011;1025;42.686;23.350;2022-11-20T01:48:22;1.60;;;1.33;;
2039;SDS011;1025;42.686;23.350;2022-11-20T01:50:50;1.50;;;1.40;;
2039;SDS011;1025;42.686;23.350;2022-11-20T01:53:18;1.73;;;1.63;;
2039;SDS011;1025;42.686;23.350;2022-11-20T01:55:45;0.87;;;0.87;;
2039;SDS011;1025;42.686;23.350;2022-11-20T01:58:14;1.07;;;0.90;;
2039;SDS011;1025;42.686;23.350;2022-11-20T02:00:41;0.97;;;0.97;;
2039;SDS011;1025;42.686;23.350;2022-11-20T02:03:08;0.90;;;0.90;;
2039;SDS011;1025;42.686;23.350;2022-11-20T02:05:38;1.53;;;1.17;;
2039;SDS011;1025;42.686;23.350;2022-11-20T02:08:06;1.67;;;1.10;;
2039;SDS011;1025;42.686;23.350;2022-11-20T02:10:33;1.37;;;1.27;;
2039;SDS011;1025;42.686;23.350;2022-11-20T02:12:59;1.23;;;1.10;;
2039;SDS011;1025;42.686;23.350;2022-11-20T02:15:43;0.80;;;0.80;;
2039;SDS011;1025;42.686;23.350;2022-11-20T02:18:10;1.03;;;1.00;;
2039;SDS011;1025;42.686;23.350;2022-11-20T02:20:39;0.97;;;0.97;;
2039;SDS011;1025;42.686;23.350;2022-11-20T02:23:08;1.00;;;1.00;;
2039;SDS011;1025;42.686;23.350;2022-11-20T02:25:38;1.77;;;1.00;;
2039;SDS011;1025;42.686;23.350;2022-11-20T02:28:06;1.17;;;0.80;;
2039;SDS011;1025;42.686;23.350;2022-11-20T02:30:32;1.10;;;1.10;;
2039;SDS011;1025;42.686;23.350;2022-11-20T02:32:59;1.00;;;1.00;;
2039;SDS011;1025;42.686;23.350;2022-11-20T02:35:39;1.30;;;1.30;;
2039;SDS011;1025;42.686;23.350;2022-11-20T02:38:06;0.70;;;0.70;;
2039;SDS011;1025;42.686;23.350;2022-11-20T02:40:32;0.90;;;0.90;;
2039;SDS011;1025;42.686;23.350;2022-11-20T02:43:00;1.00;;;1.00;;
2039;SDS011;1025;42.686;23.350;2022-11-20T02:45:27;2.40;;;1.10;;
2039;SDS011;1025;42.686;23.350;2022-11-20T02:47:53;1.07;;;0.97;;
2039;SDS011;1025;42.686;23.350;2022-11-20T02:50:20;0.90;;;0.90;;
2039;SDS011;1025;42.686;23.350;2022-11-20T02:52:46;0.90;;;0.90;;
2039;SDS011;1025;42.686;23.350;2022-11-20T02:55:13;0.60;;;0.60;;
2039;SDS011;1025;42.686;23.350;2022-11-20T02:57:40;0.70;;;0.70;;
2039;SDS011;1025;42.686;23.350;2022-11-20T03:00:08;0.80;;;0.80;;
2039;SDS011;1025;42.686;23.350;2022-11-20T03:02:35;0.70;;;0.70;;
2039;SDS011;1025;42.686;23.350;2022-11-20T03:05:02;0.70;;;0.70;;
2039;SDS011;1025;42.686;23.350;2022-11-20T03:07:28;0.70;;;0.70;;
2039;SDS011;1025;42.686;23.350;2022-11-20T03:09:55;0.80;;;0.80;;
2039;SDS011;1025;42.686;23.350;2022-11-20T03:12:21;2.30;;;0.80;;
2039;SDS011;1025;42.686;23.350;2022-11-20T03:14:48;1.00;;;1.00;;
2039;SDS011;1025;42.686;23.350;2022-11-20T03:17:16;1.20;;;1.10;;
2039;SDS011;1025;42.686;23.350;2022-11-20T03:19:43;0.70;;;0.70;;
2039;SDS011;1025;42.686;23.350;2022-11-20T03:22:10;0.90;;;0.90;;
2039;SDS011;1025;42.686;23.350;2022-11-20T03:24:36;0.80;;;0.80;;
2039;SDS011;1025;42.686;23.350;2022-11-20T03:27:03;0.70;;;0.70;;
2039;SDS011;1025;42.686;23.350;2022-11-20T03:29:29;2.93;;;1.07;;
2039;SDS011;1025;42.686;23.350;2022-11-20T03:31:56;0.83;;;0.83;;
2039;SDS011;1025;42.686;23.350;2022-11-20T03:34:24;0.93;;;0.83;;
2039;SDS011;1025;42.686;23.350;2022-11-20T03:36:50;0.90;;;0.90;;
2039;SDS011;1025;42.686;23.350;2022-11-20T03:39:17;1.27;;;1.00;;
2039;SDS011;1025;42.686;23.350;2022-11-20T03:41:43;0.60;;;0.60;;
2039;SDS011;1025;42.686;23.350;2022-11-20T03:44:10;0.70;;;0.70;;
2039;SDS011;1025;42.686;23.350;2022-11-20T03:46:37;0.70;;;0.70;;
2039;SDS011;1025;42.686;23.350;2022-11-20T03:49:04;1.03;;;0.87;;
2039;SDS011;1025;42.686;23.350;2022-11-20T03:51:32;1.17;;;1.00;;
2039;SDS011;1025;42.686;23.350;2022-11-20T03:54:01;1.63;;;0.90;;
2039;SDS011;1025;42.686;23.350;2022-11-20T03:56:28;2.17;;;1.00;;
2039;SDS011;1025;42.686;23.350;2022-11-20T03:58:54;1.57;;;0.73;;
2039;SDS011;1025;42.686;23.350;2022-11-20T04:01:22;0.90;;;0.90;;
2039;SDS011;1025;42.686;23.350;2022-11-20T04:03:49;0.90;;;0.80;;
2039;SDS011;1025;42.686;23.350;2022-11-20T04:06:16;0.80;;;0.80;;
2039;SDS011;1025;42.686;23.350;2022-11-20T04:08:44;1.00;;;1.00;;
2039;SDS011;1025;42.686;23.350;2022-11-20T04:11:11;0.93;;;0.83;;
2039;SDS011;1025;42.686;23.350;2022-11-20T04:13:38;0.80;;;0.80;;
2039;SDS011;1025;42.686;23.350;2022-11-20T04:16:04;0.80;;;0.80;;
2039;SDS011;1025;42.686;23.350;2022-11-20T04:18:31;1.50;;;0.80;;
2039;SDS011;1025;42.686;23.350;2022-11-20T04:20:58;0.90;;;0.90;;
2039;SDS011;1025;42.686;23.350;2022-11-20T04:23:24;1.10;;;1.10;;
2039;SDS011;1025;42.686;23.350;2022-11-20T04:25:52;0.70;;;0.70;;
2039;SDS011;1025;42.686;23.350;2022-11-20T04:28:19;0.80;;;0.80;;
2039;SDS011;1025;42.686;23.350;2022-11-20T04:30:45;0.80;;;0.80;;
2039;SDS011;1025;42.686;23.350;2022-11-20T04:33:12;0.90;;;0.80;;
2039;SDS011;1025;42.686;23.350;2022-11-20T04:35:39;0.90;;;0.90;;
2039;SDS011;1025;42.686;23.350;2022-11-20T04:38:05;0.90;;;0.90;;
2039;SDS011;1025;42.686;23.350;2022-11-20T04:40:32;0.90;;;0.90;;
2039;SDS011;1025;42.686;23.350;2022-11-20T04:43:00;1.30;;;1.13;;
2039;SDS011;1025;42.686;23.350;2022-11-20T04:45:26;1.03;;;0.80;;
2039;SDS011;1025;42.686;23.350;2022-11-20T04:47:53;0.87;;;0.87;;
2039;SDS011;1025;42.686;23.350;2022-11-20T04:50:19;0.80;;;0.80;;
2039;SDS011;1025;42.686;23.350;2022-11-20T04:52:46;1.17;;;1.17;;
2039;SDS011;1025;42.686;23.350;2022-11-20T04:55:12;0.90;;;0.87;;
2039;SDS011;1025;42.686;23.350;2022-11-20T04:57:39;0.70;;;0.70;;
2039;SDS011;1025;42.686;23.350;2022-11-20T05:00:08;0.90;;;0.90;;
2039;SDS011;1025;42.686;23.350;2022-11-20T05:02:34;1.87;;;0.90;;
2039;SDS011;1025;42.686;23.350;2022-11-20T05:05:01;2.07;;;0.80;;
2039;SDS011;1025;42.686;23.350;2022-11-20T05:07:27;0.90;;;0.90;;
2039;SDS011;1025;42.686;23.350;2022-11-20T05:09:54;0.90;;;0.90;;
2039;SDS011;1025;42.686;23.350;2022-11-20T05:12:20;0.80;;;0.80;;
2039;SDS011;1025;42.686;23.350;2022-11-20T05:14:47;0.60;;;0.60;;
2039;SDS011;1025;42.686;23.350;2022-11-20T05:17:15;1.43;;;1.00;;
2039;SDS011;1025;42.686;23.350;2022-11-20T05:19:42;0.77;;;0.77;;
2039;SDS011;1025;42.686;23.350;2022-11-20T05:22:08;1.37;;;1.10;;
2039;SDS011;1025;42.686;23.350;2022-11-20T05:24:35;0.67;;;0.67;;
2039;SDS011;1025;42.686;23.350;2022-11-20T05:27:01;0.90;;;0.90;;
2039;SDS011;1025;42.686;23.350;2022-11-20T05:29:28;0.80;;;0.70;;
2039;SDS011;1025;42.686;23.350;2022-11-20T05:31:54;1.23;;;1.13;;
2039;SDS011;1025;42.686;23.350;2022-11-20T05:34:22;2.07;;;0.77;;
2039;SDS011;1025;42.686;23.350;2022-11-20T05:36:49;1.90;;;1.10;;
2039;SDS011;1025;42.686;23.350;2022-11-20T05:39:15;0.77;;;0.77;;
2039;SDS011;1025;42.686;23.350;2022-11-20T05:41:42;2.33;;;0.70;;
2039;SDS011;1025;42.686;23.350;2022-11-20T05:44:10;0.60;;;0.60;;
2039;SDS011;1025;42.686;23.350;2022-11-20T05:46:36;2.97;;;0.87;;
2039;SDS011;1025;42.686;23.350;2022-11-20T05:49:03;1.07;;;1.07;;
2039;SDS011;1025;42.686;23.350;2022-11-20T05:51:31;0.90;;;0.90;;
2039;SDS011;1025;42.686;23.350;2022-11-20T05:53:58;0.80;;;0.80;;
2039;SDS011;1025;42.686;23.350;2022-11-20T05:56:24;0.80;;;0.80;;
2039;SDS011;1025;42.686;23.350;2022-11-20T05:58:51;0.70;;;0.70;;
2039;SDS011;1025;42.686;23.350;2022-11-20T06:01:18;0.80;;;0.80;;
2039;SDS011;1025;42.686;23.350;2022-11-20T06:03:45;1.10;;;1.00;;
2039;SDS011;1025;42.686;23.350;2022-11-20T06:06:12;0.90;;;0.90;;
2039;SDS011;1025;42.686;23.350;2022-11-20T06:08:41;0.77;;;0.77;;
2039;SDS011;1025;42.686;23.350;2022-11-20T06:11:08;1.00;;;1.00;;
2039;SDS011;1025;42.686;23.350;2022-11-20T06:13:35;0.70;;;0.70;;
2039;SDS011;1025;42.686;23.350;2022-11-20T06:16:02;0.80;;;0.70;;
2039;SDS011;1025;42.686;23.350;2022-11-20T06:18:28;0.70;;;0.70;;
2039;SDS011;1025;42.686;23.350;2022-11-20T06:20:59;0.60;;;0.60;;
2039;SDS011;1025;42.686;23.350;2022-11-20T06:23:25;0.70;;;0.70;;
2039;SDS011;1025;42.686;23.350;2022-11-20T06:25:55;1.57;;;0.90;;
2039;SDS011;1025;42.686;23.350;2022-11-20T06:28:21;0.80;;;0.80;;
2039;SDS011;1025;42.686;23.350;2022-11-20T06:30:48;0.60;;;0.60;;
2039;SDS011;1025;42.686;23.350;2022-11-20T06:33:15;0.80;;;0.80;;
2039;SDS011;1025;42.686;23.350;2022-11-20T06:35:42;1.00;;;1.00;;
2039;SDS011;1025;42.686;23.350;2022-11-20T06:38:10;0.97;;;0.77;;
2039;SDS011;1025;42.686;23.350;2022-11-20T06:40:39;0.90;;;0.90;;
2039;SDS011;1025;42.686;23.350;2022-11-20T06:43:07;2.83;;;0.70;;
2039;SDS011;1025;42.686;23.350;2022-11-20T06:45:35;1.13;;;1.03;;
2039;SDS011;1025;42.686;23.350;2022-11-20T06:48:03;1.13;;;1.03;;
2039;SDS011;1025;42.686;23.350;2022-11-20T06:50:29;1.83;;;1.20;;
2039;SDS011;1025;42.686;23.350;2022-11-20T06:52:56;0.83;;;0.83;;
2039;SDS011;1025;42.686;23.350;2022-11-20T06:55:27;0.77;;;0.77;;
2039;SDS011;1025;42.686;23.350;2022-11-20T06:57:53;0.97;;;0.97;;
2039;SDS011;1025;42.686;23.350;2022-11-20T07:00:22;1.43;;;1.10;;
2039;SDS011;1025;42.686;23.350;2022-11-20T07:02:48;1.33;;;0.97;;
2039;SDS011;1025;42.686;23.350;2022-11-20T07:05:15;1.20;;;1.00;;
2039;SDS011;1025;42.686;23.350;2022-11-20T07:07:42;1.00;;;0.80;;
2039;SDS011;1025;42.686;23.350;2022-11-20T07:10:10;1.63;;;1.53;;
2039;SDS011;1025;42.686;23.350;2022-11-20T07:12:37;1.43;;;1.37;;
2039;SDS011;1025;42.686;23.350;2022-11-20T07:15:04;0.93;;;0.93;;
2039;SDS011;1025;42.686;23.350;2022-11-20T07:17:33;1.03;;;0.93;;
2039;SDS011;1025;42.686;23.350;2022-11-20T07:19:59;1.00;;;0.80;;
2039;SDS011;1025;42.686;23.350;2022-11-20T07:22:26;1.57;;;1.00;;
2039;SDS011;1025;42.686;23.350;2022-11-20T07:24:53;1.10;;;1.07;;
2039;SDS011;1025;42.686;23.350;2022-11-20T07:27:20;0.70;;;0.70;;
2039;SDS011;1025;42.686;23.350;2022-11-20T07:29:47;0.83;;;0.83;;
2039;SDS011;1025;42.686;23.350;2022-11-20T07:32:13;0.90;;;0.90;;
2039;SDS011;1025;42.686;23.350;2022-11-20T07:34:41;0.80;;;0.80;;
2039;SDS011;1025;42.686;23.350;2022-11-20T07:37:08;1.13;;;1.03;;
2039;SDS011;1025;42.686;23.350;2022-11-20T07:39:34;1.00;;;1.00;;
2039;SDS011;1025;42.686;23.350;2022-11-20T07:42:01;0.93;;;0.93;;
2039;SDS011;1025;42.686;23.350;2022-11-20T07:44:27;1.60;;;1.03;;
2039;SDS011;1025;42.686;23.350;2022-11-20T07:46:54;0.70;;;0.70;;
2039;SDS011;1025;42.686;23.350;2022-11-20T07:49:20;1.27;;;1.17;;
2039;SDS011;1025;42.686;23.350;2022-11-20T07:51:51;0.93;;;0.90;;
2039;SDS011;1025;42.686;23.350;2022-11-20T07:54:18;1.80;;;1.27;;
2039;SDS011;1025;42.686;23.350;2022-11-20T07:56:45;1.13;;;1.13;;
2039;SDS011;1025;42.686;23.350;2022-11-20T07:59:11;6.80;;;1.20;;
2039;SDS011;1025;42.686;23.350;2022-11-20T08:01:38;1.17;;;1.07;;
2039;SDS011;1025;42.686;23.350;2022-11-20T08:04:05;1.00;;;0.90;;
2039;SDS011;1025;42.686;23.350;2022-11-20T08:06:32;1.00;;;1.00;;
2039;SDS011;1025;42.686;23.350;2022-11-20T08:09:00;2.10;;;1.90;;
2039;SDS011;1025;42.686;23.350;2022-11-20T08:11:27;1.20;;;1.20;;
2039;SDS011;1025;42.686;23.350;2022-11-20T08:14:10;2.77;;;0.97;;
2039;SDS011;1025;42.686;23.350;2022-11-20T08:16:41;9.50;;;1.50;;
2039;SDS011;1025;42.686;23.350;2022-11-20T08:19:08;1.33;;;1.23;;
2039;SDS011;1025;42.686;23.350;2022-11-20T08:21:35;1.17;;;0.90;;
2039;SDS011;1025;42.686;23.350;2022-11-20T08:24:03;0.93;;;0.93;;
2039;SDS011;1025;42.686;23.350;2022-11-20T08:26:30;0.80;;;0.80;;
2039;SDS011;1025;42.686;23.350;2022-11-20T08:28:57;1.37;;;1.07;;
2039;SDS011;1025;42.686;23.350;2022-11-20T08:31:24;1.27;;;1.17;;
2039;SDS011;1025;42.686;23.350;2022-11-20T08:33:51;0.90;;;0.80;;
2039;SDS011;1025;42.686;23.350;2022-11-20T08:36:17;1.70;;;1.23;;
2039;SDS011;1025;42.686;23.350;2022-11-20T08:38:46;1.53;;;1.10;;
2039;SDS011;1025;42.686;23.350;2022-11-20T08:41:14;3.87;;;1.77;;
2039;SDS011;1025;42.686;23.350;2022-11-20T08:43:51;1.73;;;1.63;;
2039;SDS011;1025;42.686;23.350;2022-11-20T08:46:17;3.70;;;3.40;;
2039;SDS011;1025;42.686;23.350;2022-11-20T08:48:44;3.20;;;1.70;;
2039;SDS011;1025;42.686;23.350;2022-11-20T08:51:11;1.70;;;1.60;;
2039;SDS011;1025;42.686;23.350;2022-11-20T08:53:37;1.53;;;1.53;;
2039;SDS011;1025;42.686;23.350;2022-11-20T08:56:04;2.30;;;2.10;;
2039;SDS011;1025;42.686;23.350;2022-11-20T08:58:32;2.27;;;2.07;;
2039;SDS011;1025;42.686;23.350;2022-11-20T09:00:59;1.30;;;1.30;;
2039;SDS011;1025;42.686;23.350;2022-11-20T09:03:25;1.93;;;1.60;;
2039;SDS011;1025;42.686;23.350;2022-11-20T09:05:56;1.63;;;1.53;;
2039;SDS011;1025;42.686;23.350;2022-11-20T09:08:22;1.93;;;1.70;;
2039;SDS011;1025;42.686;23.350;2022-11-20T09:10:50;1.13;;;1.10;;
2039;SDS011;1025;42.686;23.350;2022-11-20T09:13:17;1.50;;;1.43;;
2039;SDS011;1025;42.686;23.350;2022-11-20T09:15:45;1.80;;;1.70;;
2039;SDS011;1025;42.686;23.350;2022-11-20T09:18:12;1.70;;;1.60;;
2039;SDS011;1025;42.686;23.350;2022-11-20T09:20:38;1.77;;;1.63;;
2039;SDS011;1025;42.686;23.350;2022-11-20T09:23:05;1.23;;;1.23;;
2039;SDS011;1025;42.686;23.350;2022-11-20T09:25:32;1.00;;;0.90;;
2039;SDS011;1025;42.686;23.350;2022-11-20T09:27:58;5.50;;;1.23;;
2039;SDS011;1025;42.686;23.350;2022-11-20T09:30:25;1.43;;;1.00;;
2039;SDS011;1025;42.686;23.350;2022-11-20T09:32:53;1.10;;;1.10;;
2039;SDS011;1025;42.686;23.350;2022-11-20T09:35:20;0.90;;;0.90;;
2039;SDS011;1025;42.686;23.350;2022-11-20T09:37:46;1.40;;;1.30;;
2039;SDS011;1025;42.686;23.350;2022-11-20T09:40:17;2.40;;;1.97;;
2039;SDS011;1025;42.686;23.350;2022-11-20T09:42:45;2.13;;;1.93;;
2039;SDS011;1025;42.686;23.350;2022-11-20T09:45:15;1.30;;;1.20;;
2039;SDS011;1025;42.686;23.350;2022-11-20T09:47:48;1.00;;;1.00;;
2039;SDS011;1025;42.686;23.350;2022-11-20T09:50:24;3.80;;;1.30;;
2039;SDS011;1025;42.686;23.350;2022-11-20T09:52:55;1.57;;;1.40;;
2039;SDS011;1025;42.686;23.350;2022-11-20T09:55:23;1.57;;;1.47;;
2039;SDS011;1025;42.686;23.350;2022-11-20T09:57:51;1.37;;;1.10;;
2039;SDS011;1025;42.686;23.350;2022-11-20T10:00:18;1.17;;;1.17;;
2039;SDS011;1025;42.686;23.350;2022-11-20T10:02:47;1.40;;;1.33;;
2039;SDS011;1025;42.686;23.350;2022-11-20T10:05:16;8.37;;;1.80;;
2039;SDS011;1025;42.686;23.350;2022-11-20T10:07:47;2.07;;;1.87;;
2039;SDS011;1025;42.686;23.350;2022-11-20T10:10:15;2.93;;;2.73;;
2039;SDS011;1025;42.686;23.350;2022-11-20T10:12:46;2.10;;;2.00;;
2039;SDS011;1025;42.686;23.350;2022-11-20T10:15:22;1.90;;;1.80;;
2039;SDS011;1025;42.686;23.350;2022-11-20T10:17:56;2.60;;;2.40;;
2039;SDS011;1025;42.686;23.350;2022-11-20T10:20:26;2.07;;;1.97;;
2039;SDS011;1025;42.686;23.350;2022-11-20T10:23:00;2.40;;;1.63;;
2039;SDS011;1025;42.686;23.350;2022-11-20T10:25:32;1.10;;;1.07;;
2039;SDS011;1025;42.686;23.350;2022-11-20T10:28:04;2.17;;;2.00;;
2039;SDS011;1025;42.686;23.350;2022-11-20T10:30:37;1.70;;;1.63;;
2039;SDS011;1025;42.686;23.350;2022-11-20T10:33:04;4.00;;;2.27;;
2039;SDS011;1025;42.686;23.350;2022-11-20T10:35:33;1.63;;;1.53;;
2039;SDS011;1025;42.686;23.350;2022-11-20T10:38:03;2.40;;;2.20;;
2039;SDS011;1025;42.686;23.350;2022-11-20T10:40:32;1.90;;;1.80;;
2039;SDS011;1025;42.686;23.350;2022-11-20T10:43:01;2.30;;;2.20;;
2039;SDS011;1025;42.686;23.350;2022-11-20T10:45:34;2.57;;;2.47;;
2039;SDS011;1025;42.686;23.350;2022-11-20T10:48:07;4.37;;;2.77;;
2039;SDS011;1025;42.686;23.350;2022-11-20T10:50:36;2.67;;;2.30;;
2039;SDS011;1025;42.686;23.350;2022-11-20T10:53:08;2.27;;;2.10;;
2039;SDS011;1025;42.686;23.350;2022-11-20T10:55:42;2.87;;;2.37;;
2039;SDS011;1025;42.686;23.350;2022-11-20T10:58:12;2.83;;;2.63;;
2039;SDS011;1025;42.686;23.350;2022-11-20T11:00:39;3.77;;;3.47;;
2039;SDS011;1025;42.686;23.350;2022-11-20T11:03:13;9.43;;;3.20;;
2039;SDS011;1025;42.686;23.350;2022-11-20T11:05:44;2.63;;;2.53;;
2039;SDS011;1025;42.686;23.350;2022-11-20T11:08:16;2.97;;;2.80;;
2039;SDS011;1025;42.686;23.350;2022-11-20T11:10:44;7.13;;;2.50;;
2039;SDS011;1025;42.686;23.350;2022-11-20T11:13:19;6.80;;;1.63;;
2039;SDS011;1025;42.686;23.350;2022-11-20T11:15:46;1.33;;;1.33;;
2039;SDS011;1025;42.686;23.350;2022-11-20T11:18:22;1.57;;;1.47;;
2039;SDS011;1025;42.686;23.350;2022-11-20T11:20:49;1.00;;;1.00;;
2039;SDS011;1025;42.686;23.350;2022-11-20T11:23:26;0.83;;;0.83;;
2039;SDS011;1025;42.686;23.350;2022-11-20T11:25:56;0.90;;;0.90;;
2039;SDS011;1025;42.686;23.350;2022-11-20T11:28:24;1.03;;;0.93;;
2039;SDS011;1025;42.686;23.350;2022-11-20T11:30:52;2.43;;;1.10;;
2039;SDS011;1025;42.686;23.350;2022-11-20T11:33:19;2.33;;;1.13;;
2039;SDS011;1025;42.686;23.350;2022-11-20T11:35:47;0.70;;;0.70;;
2039;SDS011;1025;42.686;23.350;2022-11-20T11:38:15;1.17;;;1.00;;
2039;SDS011;1025;42.686;23.350;2022-11-20T11:40:44;0.70;;;0.70;;
2039;SDS011;1025;42.686;23.350;2022-11-20T11:43:17;0.87;;;0.70;;
2039;SDS011;1025;42.686;23.350;2022-11-20T11:45:58;1.43;;;0.77;;
2039;SDS011;1025;42.686;23.350;2022-11-20T11:48:24;0.60;;;0.60;;
2039;SDS011;1025;42.686;23.350;2022-11-20T11:50:51;0.70;;;0.70;;
2039;SDS011;1025;42.686;23.350;2022-11-20T11:53:19;0.73;;;0.73;;
2039;SDS011;1025;42.686;23.350;2022-11-20T11:55:49;1.07;;;0.97;;
2039;SDS011;1025;42.686;23.350;2022-11-20T11:58:20;0.80;;;0.80;;
2039;SDS011;1025;42.686;23.350;2022-11-20T12:00:51;0.97;;;0.80;;
2039;SDS011;1025;42.686;23.350;2022-11-20T12:03:21;0.83;;;0.83;;
2039;SDS011;1025;42.686;23.350;2022-11-20T12:05:53;0.70;;;0.70;;
2039;SDS011;1025;42.686;23.350;2022-11-20T12:08:23;1.53;;;1.00;;
2039;SDS011;1025;42.686;23.350;2022-11-20T12:10:53;1.20;;;1.13;;
2039;SDS011;1025;42.686;23.350;2022-11-20T12:13:30;0.80;;;0.80;;
2039;SDS011;1025;42.686;23.350;2022-11-20T12:16:03;2.40;;;1.00;;
2039;SDS011;1025;42.686;23.350;2022-11-20T12:18:35;1.10;;;0.90;;
2039;SDS011;1025;42.686;23.350;2022-11-20T12:21:05;5.67;;;0.70;;
2039;SDS011;1025;42.686;23.350;2022-11-20T12:23:35;0.90;;;0.90;;
2039;SDS011;1025;42.686;23.350;2022-11-20T12:26:13;3.03;;;0.70;;
2039;SDS011;1025;42.686;23.350;2022-11-20T12:28:45;3.23;;;1.00;;
2039;SDS011;1025;42.686;23.350;2022-11-20T12:31:23;0.90;;;0.90;;
2039;SDS011;1025;42.686;23.350;2022-11-20T12:33:57;1.07;;;0.93;;
2039;SDS011;1025;42.686;23.350;2022-11-20T12:36:31;1.03;;;0.87;;
2039;SDS011;1025;42.686;23.350;2022-11-20T12:39:09;1.00;;;1.00;;
2039;SDS011;1025;42.686;23.350;2022-11-20T12:41:46;0.80;;;0.80;;
2039;SDS011;1025;42.686;23.350;2022-11-20T12:44:56;0.90;;;0.90;;
2039;SDS011;1025;42.686;23.350;2022-11-20T12:47:40;1.00;;;0.93;;
2039;SDS011;1025;42.686;23.350;2022-11-20T12:50:11;0.60;;;0.60;;
2039;SDS011;1025;42.686;23.350;2022-11-20T12:52:39;0.70;;;0.70;;
2039;SDS011;1025;42.686;23.350;2022-11-20T12:55:16;2.10;;;1.90;;
2039;SDS011;1025;42.686;23.350;2022-11-20T12:57:46;2.63;;;2.43;;
2039;SDS011;1025;42.686;23.350;2022-11-20T13:00:16;1.90;;;1.70;;
2039;SDS011;1025;42.686;23.350;2022-11-20T13:02:50;2.10;;;1.77;;
2039;SDS011;1025;42.686;23.350;2022-11-20T13:05:21;1.70;;;1.60;;
2039;SDS011;1025;42.686;23.350;2022-11-20T13:07:51;1.83;;;1.73;;
2039;SDS011;1025;42.686;23.350;2022-11-20T13:10:18;2.20;;;2.00;;
2039;SDS011;1025;42.686;23.350;2022-11-20T13:12:49;1.93;;;1.83;;
2039;SDS011;1025;42.686;23.350;2022-11-20T13:15:26;1.43;;;1.33;;
2039;SDS011;1025;42.686;23.350;2022-11-20T13:17:56;2.67;;;1.73;;
2039;SDS011;1025;42.686;23.350;2022-11-20T13:20:24;2.70;;;1.60;;
2039;SDS011;1025;42.686;23.350;2022-11-20T13:22:51;4.07;;;1.93;;
2039;SDS011;1025;42.686;23.350;2022-11-20T13:25:23;1.83;;;1.50;;
2039;SDS011;1025;42.686;23.350;2022-11-20T13:27:51;2.70;;;2.50;;
2039;SDS011;1025;42.686;23.350;2022-11-20T13:30:18;1.43;;;1.33;;
2039;SDS011;1025;42.686;23.350;2022-11-20T13:32:49;2.00;;;1.87;;
2039;SDS011;1025;42.686;23.350;2022-11-20T13:35:23;1.97;;;1.87;;
2039;SDS011;1025;42.686;23.350;2022-11-20T13:37:59;1.97;;;1.50;;
2039;SDS011;1025;42.686;23.350;2022-11-20T13:40:26;1.70;;;1.30;;
2039;SDS011;1025;42.686;23.350;2022-11-20T13:43:00;2.30;;;1.60;;
2039;SDS011;1025;42.686;23.350;2022-11-20T13:45:27;1.20;;;1.20;;
2039;SDS011;1025;42.686;23.350;2022-11-20T13:47:55;2.63;;;2.43;;
2039;SDS011;1025;42.686;23.350;2022-11-20T13:50:32;1.83;;;1.27;;
2039;SDS011;1025;42.686;23.350;2022-11-20T13:53:05;2.50;;;2.10;;
2039;SDS011;1025;42.686;23.350;2022-11-20T13:55:35;1.63;;;1.53;;
2039;SDS011;1025;42.686;23.350;2022-11-20T13:58:24;2.70;;;2.00;;
2039;SDS011;1025;42.686;23.350;2022-11-20T14:00:57;7.27;;;3.30;;
2039;SDS011;1025;42.686;23.350;2022-11-20T14:03:24;2.00;;;1.90;;
2039;SDS011;1025;42.686;23.350;2022-11-20T14:05:54;4.00;;;2.43;;
2039;SDS011;1025;42.686;23.350;2022-11-20T14:08:25;2.40;;;2.30;;
2039;SDS011;1025;42.686;23.350;2022-11-20T14:11:02;3.30;;;3.00;;
2039;SDS011;1025;42.686;23.350;2022-11-20T14:13:30;3.70;;;1.93;;
2039;SDS011;1025;42.686;23.350;2022-11-20T14:15:57;2.43;;;2.23;;
2039;SDS011;1025;42.686;23.350;2022-11-20T14:18:25;2.40;;;2.20;;
2039;SDS011;1025;42.686;23.350;2022-11-20T14:20:51;4.77;;;2.70;;
2039;SDS011;1025;42.686;23.350;2022-11-20T14:23:23;2.13;;;2.03;;
2039;SDS011;1025;42.686;23.350;2022-11-20T14:25:49;2.33;;;2.23;;
2039;SDS011;1025;42.686;23.350;2022-11-20T14:28:19;2.00;;;1.90;;
2039;SDS011;1025;42.686;23.350;2022-11-20T14:30:50;2.80;;;2.70;;
2039;SDS011;1025;42.686;23.350;2022-11-20T14:33:17;3.27;;;2.97;;
2039;SDS011;1025;42.686;23.350;2022-11-20T14:35:45;3.30;;;2.77;;
2039;SDS011;1025;42.686;23.350;2022-11-20T14:38:13;3.97;;;3.63;;
2039;SDS011;1025;42.686;23.350;2022-11-20T14:40:40;6.60;;;3.83;;
2039;SDS011;1025;42.686;23.350;2022-11-20T14:43:17;2.90;;;2.80;;
2039;SDS011;1025;42.686;23.350;2022-11-20T14:45:44;2.63;;;2.43;;
2039;SDS011;1025;42.686;23.350;2022-11-20T14:48:13;3.80;;;3.27;;
2039;SDS011;1025;42.686;23.350;2022-11-20T14:50:41;2.80;;;2.60;;
2039;SDS011;1025;42.686;23.350;2022-11-20T14:53:08;4.17;;;3.87;;
2039;SDS011;1025;42.686;23.350;2022-11-20T14:55:35;4.37;;;3.97;;
2039;SDS011;1025;42.686;23.350;2022-11-20T14:58:04;5.03;;;3.50;;
2039;SDS011;1025;42.686;23.350;2022-11-20T15:00:31;3.13;;;3.03;;
2039;SDS011;1025;42.686;23.350;2022-11-20T15:02:58;3.10;;;3.00;;
2039;SDS011;1025;42.686;23.350;2022-11-20T15:05:37;2.33;;;2.23;;
2039;SDS011;1025;42.686;23.350;2022-11-20T15:08:10;3.17;;;3.03;;
2039;SDS011;1025;42.686;23.350;2022-11-20T15:10:37;6.00;;;3.07;;